Terminal Aerodrome Forecast
Issued by NWS

Home | Current Version | Previous Version | Text Only | Print | Product List | Glossary On
Versions: 1 2 3 4 5 6 7 8 9 10 11 12 13 14 15
000
FTUS46 KMTR 310248 AAA
TAFSJC
TAF AMD
KSJC 310248Z 3103/3124 32016G20KT P6SM FEW040 SCT250
     FM310500 31016KT P6SM VCSH SCT150 BKN250
     FM310900 31008KT P6SM SCT200
     FM311800 32014KT P6SM FEW250=

USA.gov is the U.S. government's official web portal to all federal, state and local government web resources and services.